createdAt,value
2023-04-07T00:00:02.088Z,24.66
2023-04-07T00:01:01.383Z,24.65
2023-04-07T00:02:01.327Z,24.65
2023-04-07T00:03:01.457Z,24.64
2023-04-07T00:04:01.578Z,24.64
2023-04-07T00:05:01.647Z,24.63
2023-04-07T00:06:01.546Z,24.64
2023-04-07T00:07:01.572Z,24.63
2023-04-07T00:08:01.676Z,24.63
2023-04-07T00:09:01.747Z,24.62
2023-04-07T00:10:01.770Z,24.62
2023-04-07T00:11:01.919Z,24.62
2023-04-07T00:12:01.900Z,24.62
2023-04-07T00:13:01.900Z,24.61
2023-04-07T00:14:01.969Z,24.60
2023-04-07T00:15:01.981Z,24.61
2023-04-07T00:16:02.037Z,24.60
2023-04-07T00:17:02.117Z,24.60
2023-04-07T00:18:02.197Z,24.61
2023-04-07T00:19:02.223Z,24.60
2023-04-07T00:20:02.326Z,24.59
2023-04-07T00:21:02.346Z,24.59
2023-04-07T00:22:02.348Z,24.59
2023-04-07T00:23:02.349Z,24.59
2023-04-07T00:24:02.460Z,24.59
2023-04-07T00:25:02.577Z,24.58
2023-04-07T00:26:02.581Z,24.58
2023-04-07T00:27:02.572Z,24.57
2023-04-07T00:28:02.629Z,24.57
2023-04-07T00:29:02.636Z,24.57
2023-04-07T00:30:02.662Z,24.57
2023-04-07T00:31:02.729Z,24.56
2023-04-07T00:32:02.756Z,24.56
2023-04-07T00:33:02.775Z,24.56
2023-04-07T00:34:02.762Z,24.55
2023-04-07T00:35:02.837Z,24.55
2023-04-07T00:36:02.912Z,24.55
2023-04-07T00:37:02.849Z,24.54
2023-04-07T00:38:02.862Z,24.53
2023-04-07T00:39:02.911Z,24.53
2023-04-07T00:40:02.912Z,24.53
2023-04-07T00:41:02.922Z,24.53
2023-04-07T00:42:02.919Z,24.52
2023-04-07T00:43:03.011Z,24.52
2023-04-07T00:44:03.015Z,24.52
2023-04-07T00:45:03.059Z,24.51
2023-04-07T00:46:03.099Z,24.51
2023-04-07T00:47:03.069Z,24.51
2023-04-07T00:48:03.178Z,24.50
2023-04-07T00:49:03.149Z,24.51
2023-04-07T00:50:03.158Z,24.50
2023-04-07T00:51:03.167Z,24.49
2023-04-07T00:52:03.163Z,24.49
2023-04-07T00:53:03.186Z,24.49
2023-04-07T00:54:03.182Z,24.49
2023-04-07T00:55:03.194Z,24.49
2023-04-07T00:56:03.253Z,24.49
2023-04-07T00:57:03.199Z,24.48
2023-04-07T00:58:03.611Z,24.49
2023-04-07T00:59:03.249Z,24.48
2023-04-07T01:00:03.256Z,24.47
2023-04-07T01:01:03.248Z,24.47
2023-04-07T01:02:03.408Z,24.47
2023-04-07T01:03:03.512Z,24.47
2023-04-07T01:04:03.296Z,24.47
2023-04-07T01:05:03.257Z,24.47
2023-04-07T01:06:03.263Z,24.47
2023-04-07T01:07:03.271Z,24.46
2023-04-07T01:08:03.269Z,24.46
2023-04-07T01:09:03.300Z,24.46
2023-04-07T01:10:03.314Z,24.45
2023-04-07T01:11:03.284Z,24.46
2023-04-07T01:12:03.292Z,24.46
2023-04-07T01:13:03.441Z,24.46
2023-04-07T01:14:03.362Z,24.45
2023-04-07T01:15:03.350Z,24.45
2023-04-07T01:16:03.287Z,24.45
2023-04-07T01:17:03.247Z,24.44
2023-04-07T01:18:03.339Z,24.44
2023-04-07T01:19:03.287Z,24.44
2023-04-07T01:20:03.396Z,24.43
2023-04-07T01:21:03.303Z,24.43
2023-04-07T01:22:03.368Z,24.43
2023-04-07T01:23:03.301Z,24.42
2023-04-07T01:24:03.313Z,24.42
2023-04-07T01:25:03.389Z,24.41
2023-04-07T01:26:03.282Z,24.42
2023-04-07T01:27:03.341Z,24.41
2023-04-07T01:28:03.315Z,24.41
2023-04-07T01:29:03.353Z,24.40
2023-04-07T01:30:03.335Z,24.40
2023-04-07T01:31:03.321Z,24.41
2023-04-07T01:32:03.463Z,24.40
2023-04-07T01:33:03.367Z,24.39
2023-04-07T01:34:04.155Z,24.40
2023-04-07T01:35:03.349Z,24.39
2023-04-07T01:36:03.304Z,24.39
2023-04-07T01:37:03.390Z,24.39
2023-04-07T01:38:03.279Z,24.39
2023-04-07T01:39:03.283Z,24.39
2023-04-07T01:40:03.295Z,24.38
2023-04-07T01:41:03.300Z,24.39
2023-04-07T01:42:03.300Z,24.39
2023-04-07T01:43:03.326Z,24.38
2023-04-07T01:44:03.245Z,24.37
2023-04-07T01:45:03.317Z,24.37
2023-04-07T01:46:03.333Z,24.36
2023-04-07T01:47:03.396Z,24.36
2023-04-07T01:48:03.290Z,24.37
2023-04-07T01:49:03.282Z,24.36
2023-04-07T01:50:03.286Z,24.36
2023-04-07T01:51:03.325Z,24.36
2023-04-07T01:52:03.303Z,24.35
2023-04-07T01:53:03.333Z,24.35
2023-04-07T01:54:03.323Z,24.35
2023-04-07T01:55:03.283Z,24.35
2023-04-07T01:56:03.331Z,24.35
2023-04-07T01:57:03.301Z,24.34
2023-04-07T01:58:03.308Z,24.34
2023-04-07T01:59:03.292Z,24.34
2023-04-07T02:00:03.266Z,24.33
2023-04-07T02:01:03.363Z,24.34
2023-04-07T02:02:03.303Z,24.33
2023-04-07T02:03:03.420Z,24.33
2023-04-07T02:04:03.381Z,24.32
2023-04-07T02:05:03.364Z,24.32
2023-04-07T02:06:03.361Z,24.32
2023-04-07T02:07:03.379Z,24.33
2023-04-07T02:08:03.316Z,24.31
2023-04-07T02:09:03.279Z,24.31
2023-04-07T02:10:03.282Z,24.31
2023-04-07T02:11:03.340Z,24.31
2023-04-07T02:12:03.305Z,24.31
2023-04-07T02:13:03.302Z,24.31
2023-04-07T02:14:03.313Z,24.30
2023-04-07T02:15:03.340Z,24.30
2023-04-07T02:16:03.463Z,24.29
2023-04-07T02:17:03.338Z,24.29
2023-04-07T02:18:03.419Z,24.29
2023-04-07T02:19:03.655Z,24.29
2023-04-07T02:20:03.304Z,24.29
2023-04-07T02:21:03.294Z,24.28
2023-04-07T02:22:03.320Z,24.29
2023-04-07T02:23:03.328Z,24.29
2023-04-07T02:24:03.382Z,24.28
2023-04-07T02:25:03.402Z,24.28
2023-04-07T02:26:03.316Z,24.28
2023-04-07T02:27:03.415Z,24.28
2023-04-07T02:28:03.346Z,24.27
2023-04-07T02:29:03.322Z,24.27
2023-04-07T02:30:03.434Z,24.27
2023-04-07T02:31:03.440Z,24.26
2023-04-07T02:32:03.427Z,24.26
2023-04-07T02:33:03.489Z,24.26
2023-04-07T02:34:03.344Z,24.25
2023-04-07T02:35:03.377Z,24.26
2023-04-07T02:36:03.371Z,24.25
2023-04-07T02:37:03.435Z,24.24
2023-04-07T02:38:03.405Z,24.24
2023-04-07T02:39:03.380Z,24.23
2023-04-07T02:40:03.382Z,24.23
2023-04-07T02:41:03.392Z,24.23
2023-04-07T02:42:03.399Z,24.22
2023-04-07T02:43:03.515Z,24.22
2023-04-07T02:44:03.433Z,24.23
2023-04-07T02:45:03.452Z,24.23
2023-04-07T02:46:03.547Z,24.22
2023-04-07T02:47:03.480Z,24.22
2023-04-07T02:48:03.484Z,24.22
2023-04-07T02:49:03.497Z,24.22
2023-04-07T02:50:03.505Z,24.21
2023-04-07T02:51:03.535Z,24.21
2023-04-07T02:52:03.509Z,24.21
2023-04-07T02:53:03.504Z,24.21
2023-04-07T02:54:03.589Z,24.21
2023-04-07T02:55:03.687Z,24.21
2023-04-07T02:56:03.585Z,24.20
2023-04-07T02:57:03.668Z,24.20
2023-04-07T02:58:03.622Z,24.21
2023-04-07T02:59:03.614Z,24.19
2023-04-07T03:00:03.560Z,24.19
2023-04-07T03:01:03.658Z,24.19
2023-04-07T03:02:03.777Z,24.18
2023-04-07T03:03:03.830Z,24.19
2023-04-07T03:04:03.942Z,24.19
2023-04-07T03:05:03.701Z,24.18
2023-04-07T03:06:03.686Z,24.17
2023-04-07T03:07:03.704Z,24.17
2023-04-07T03:08:03.710Z,24.17
2023-04-07T03:09:03.786Z,24.18
2023-04-07T03:10:03.730Z,24.18
2023-04-07T03:11:03.814Z,24.17
2023-04-07T03:12:03.802Z,24.16
2023-04-07T03:13:03.816Z,24.16
2023-04-07T03:14:03.819Z,24.17
2023-04-07T03:15:03.817Z,24.16
2023-04-07T03:16:03.847Z,24.16
2023-04-07T03:17:03.869Z,24.15
2023-04-07T03:18:03.960Z,24.15
2023-04-07T03:19:03.863Z,24.15
2023-04-07T03:20:03.877Z,24.15
2023-04-07T03:21:03.911Z,24.15
2023-04-07T03:22:03.919Z,24.15
2023-04-07T03:23:03.939Z,24.14
2023-04-07T03:24:03.924Z,24.14
2023-04-07T03:25:04.116Z,24.14
2023-04-07T03:26:03.928Z,24.14
2023-04-07T03:27:04.010Z,24.13
2023-04-07T03:28:04.129Z,24.12
2023-04-07T03:29:04.030Z,24.13
2023-04-07T03:30:04.063Z,24.13
2023-04-07T03:31:04.140Z,24.12
2023-04-07T03:32:04.257Z,24.12
2023-04-07T03:33:04.155Z,24.12
2023-04-07T03:34:04.163Z,24.12
2023-04-07T03:35:04.170Z,24.12
2023-04-07T03:36:04.228Z,24.11
2023-04-07T03:37:04.187Z,24.11
2023-04-07T03:38:04.191Z,24.12
2023-04-07T03:39:04.198Z,24.11
2023-04-07T03:40:04.203Z,24.11
2023-04-07T03:41:04.281Z,24.11
2023-04-07T03:42:04.247Z,24.10
2023-04-07T03:43:04.248Z,24.10
2023-04-07T03:44:04.341Z,24.09
2023-04-07T03:45:04.281Z,24.09
2023-04-07T03:46:04.371Z,24.09
2023-04-07T03:47:04.357Z,24.09
2023-04-07T03:48:04.391Z,24.08
2023-04-07T03:49:04.460Z,24.08
2023-04-07T03:50:04.424Z,24.08
2023-04-07T03:51:04.409Z,24.07
2023-04-07T03:52:04.422Z,24.07
2023-04-07T03:53:04.433Z,24.07
2023-04-07T03:54:04.500Z,24.07
2023-04-07T03:55:04.446Z,24.08
2023-04-07T03:56:04.445Z,24.07
2023-04-07T03:57:04.541Z,24.07
2023-04-07T03:58:04.640Z,24.07
2023-04-07T03:59:04.623Z,24.06
2023-04-07T04:00:04.552Z,24.06
2023-04-07T04:01:04.592Z,24.06
2023-04-07T04:02:04.739Z,24.05
2023-04-07T04:03:04.734Z,24.04
2023-04-07T04:04:04.807Z,24.03
2023-04-07T04:05:04.658Z,24.03
2023-04-07T04:06:04.684Z,24.00
2023-04-07T04:07:04.710Z,23.99
2023-04-07T04:08:04.669Z,23.97
2023-04-07T04:09:04.708Z,23.98
2023-04-07T04:10:04.733Z,23.96
2023-04-07T04:11:04.739Z,23.95
2023-04-07T04:12:04.747Z,23.93
2023-04-07T04:13:04.772Z,23.92
2023-04-07T04:14:04.828Z,23.92
2023-04-07T04:15:04.818Z,23.92
2023-04-07T04:16:04.919Z,23.92
2023-04-07T04:17:05.431Z,23.92
2023-04-07T04:18:04.958Z,23.91
2023-04-07T04:19:04.898Z,23.90
2023-04-07T04:20:04.965Z,23.90
2023-04-07T04:21:04.920Z,23.89
2023-04-07T04:22:04.998Z,23.89
2023-04-07T04:23:05.029Z,23.88
2023-04-07T04:24:05.094Z,23.88
2023-04-07T04:25:19.657Z,23.87
2023-04-07T04:26:05.232Z,23.84
2023-04-07T04:27:05.237Z,23.86
2023-04-07T04:28:05.244Z,23.87
2023-04-07T04:29:05.266Z,23.86
2023-04-07T04:30:05.263Z,23.87
2023-04-07T04:31:05.277Z,23.86
2023-04-07T04:32:05.300Z,23.86
2023-04-07T04:33:05.440Z,23.86
2023-04-07T04:34:05.457Z,23.85
2023-04-07T04:35:05.412Z,23.84
2023-04-07T04:36:05.484Z,23.84
2023-04-07T04:37:05.558Z,23.85
2023-04-07T04:38:05.524Z,23.85
2023-04-07T04:39:05.552Z,23.86
2023-04-07T04:40:05.638Z,23.86
2023-04-07T04:41:05.645Z,23.87
2023-04-07T04:42:05.624Z,23.87
2023-04-07T04:43:05.655Z,23.87
2023-04-07T04:44:05.776Z,23.87
2023-04-07T04:45:05.750Z,23.88
2023-04-07T04:46:05.743Z,23.88
2023-04-07T04:47:05.830Z,23.89
2023-04-07T04:48:05.865Z,23.89
2023-04-07T04:49:05.903Z,23.89
2023-04-07T04:50:05.987Z,23.88
2023-04-07T04:51:05.911Z,23.88
2023-04-07T04:52:06.028Z,23.89
2023-04-07T04:53:05.929Z,23.88
2023-04-07T04:54:05.967Z,23.89
2023-04-07T04:55:06.022Z,23.89
2023-04-07T04:56:06.045Z,23.89
2023-04-07T04:57:06.074Z,23.89
2023-04-07T04:58:06.060Z,23.88
2023-04-07T04:59:06.141Z,23.89
2023-04-07T05:00:06.217Z,23.88
2023-04-07T05:01:06.188Z,23.87
2023-04-07T05:02:06.265Z,23.88
2023-04-07T05:03:06.385Z,23.87
2023-04-07T05:04:06.475Z,23.87
2023-04-07T05:05:06.450Z,23.86
2023-04-07T05:06:06.325Z,23.86
2023-04-07T05:07:06.336Z,23.87
2023-04-07T05:08:06.450Z,23.87
2023-04-07T05:09:06.375Z,23.86
2023-04-07T05:10:06.418Z,23.86
2023-04-07T05:11:06.424Z,23.86
2023-04-07T05:12:06.476Z,23.86
2023-04-07T05:13:06.508Z,23.85
2023-04-07T05:14:06.582Z,23.85
2023-04-07T05:15:06.571Z,23.85
2023-04-07T05:16:06.677Z,23.85
2023-04-07T05:17:06.615Z,23.85
2023-04-07T05:18:06.648Z,23.85
2023-04-07T05:19:06.742Z,23.85
2023-04-07T05:20:06.826Z,23.84
2023-04-07T05:21:06.738Z,23.85
2023-04-07T05:22:06.821Z,23.84
2023-04-07T05:23:06.775Z,23.85
2023-04-07T05:24:08.146Z,23.84
2023-04-07T05:25:06.864Z,23.84
2023-04-07T05:26:06.904Z,23.84
2023-04-07T05:27:06.943Z,23.84
2023-04-07T05:28:07.009Z,23.83
2023-04-07T05:29:07.057Z,23.84
2023-04-07T05:30:07.098Z,23.84
2023-04-07T05:31:07.943Z,23.84
2023-04-07T05:32:07.220Z,23.84
2023-04-07T05:33:07.259Z,23.84
2023-04-07T05:34:07.373Z,23.84
2023-04-07T05:35:07.242Z,23.84
2023-04-07T05:36:07.350Z,23.84
2023-04-07T05:37:07.323Z,23.84
2023-04-07T05:38:07.367Z,23.84
2023-04-07T05:39:07.373Z,23.84
2023-04-07T05:40:07.543Z,23.84
2023-04-07T05:41:07.491Z,23.84
2023-04-07T05:42:07.494Z,23.84
2023-04-07T05:43:07.601Z,23.84
2023-04-07T05:44:07.565Z,23.84
2023-04-07T05:45:07.643Z,23.83
2023-04-07T05:46:07.677Z,23.84
2023-04-07T05:47:07.704Z,23.84
2023-04-07T05:48:08.249Z,23.84
2023-04-07T05:50:08.742Z,23.83
2023-04-07T05:51:07.787Z,23.83
2023-04-07T05:52:07.775Z,23.84
2023-04-07T05:53:07.752Z,23.83
2023-04-07T05:54:07.782Z,23.83
2023-04-07T05:55:07.689Z,23.84
2023-04-07T05:56:07.711Z,23.84
2023-04-07T05:57:07.760Z,23.84
2023-04-07T05:58:07.713Z,23.84
2023-04-07T05:59:07.746Z,23.84
2023-04-07T06:00:07.791Z,23.84
2023-04-07T06:01:07.712Z,23.84
2023-04-07T06:02:07.705Z,23.83
2023-04-07T06:03:07.841Z,23.83
2023-04-07T06:04:07.721Z,23.83
2023-04-07T06:05:07.810Z,23.83
2023-04-07T06:06:07.767Z,23.83
2023-04-07T06:07:07.844Z,23.83
2023-04-07T06:08:07.838Z,23.84
2023-04-07T06:09:08.361Z,23.84
2023-04-07T06:10:07.968Z,23.83
2023-04-07T06:11:07.961Z,23.84
2023-04-07T06:12:08.015Z,23.83
2023-04-07T06:13:08.025Z,23.84
2023-04-07T06:14:08.052Z,23.84
2023-04-07T06:15:08.108Z,23.84
2023-04-07T06:16:08.159Z,23.84
2023-04-07T06:17:08.212Z,23.84
2023-04-07T06:18:08.253Z,23.84
2023-04-07T06:19:08.303Z,23.85
2023-04-07T06:20:08.261Z,23.85
2023-04-07T06:21:08.313Z,23.85
2023-04-07T06:22:08.401Z,23.85
2023-04-07T06:23:08.393Z,23.85
2023-04-07T06:24:08.463Z,23.85
2023-04-07T06:25:08.470Z,23.85
2023-04-07T06:26:08.470Z,23.86
2023-04-07T06:27:08.533Z,23.85
2023-04-07T06:28:08.594Z,23.86
2023-04-07T06:29:08.591Z,23.86
2023-04-07T06:30:08.658Z,23.85
2023-04-07T06:31:08.745Z,23.86
2023-04-07T06:32:08.753Z,23.87
2023-04-07T06:33:08.767Z,23.86
2023-04-07T06:34:08.765Z,23.86
2023-04-07T06:35:08.793Z,23.86
2023-04-07T06:36:08.854Z,23.87
2023-04-07T06:37:08.890Z,23.87
2023-04-07T06:38:08.859Z,23.87
2023-04-07T06:39:08.909Z,23.87
2023-04-07T06:40:08.938Z,23.87
2023-04-07T06:41:08.953Z,23.88
2023-04-07T06:42:08.984Z,23.88
2023-04-07T06:43:09.046Z,23.89
2023-04-07T06:44:09.740Z,23.89
2023-04-07T06:45:09.164Z,23.89
2023-04-07T06:46:09.113Z,23.90
2023-04-07T06:47:09.163Z,23.90
2023-04-07T06:48:09.231Z,23.90
2023-04-07T06:49:09.211Z,23.89
2023-04-07T06:50:09.251Z,23.90
2023-04-07T06:51:09.241Z,23.90
2023-04-07T06:52:09.300Z,23.92
2023-04-07T06:53:09.319Z,23.92
2023-04-07T06:54:09.390Z,23.92
2023-04-07T06:55:09.419Z,23.92
2023-04-07T06:56:09.426Z,23.92
2023-04-07T06:57:09.457Z,23.93
2023-04-07T06:58:09.473Z,23.94
2023-04-07T06:59:09.474Z,23.95
2023-04-07T07:00:09.576Z,23.96
2023-04-07T07:01:09.602Z,23.96
2023-04-07T07:02:09.682Z,23.97
2023-04-07T07:03:09.757Z,23.98
2023-04-07T07:04:09.714Z,23.99
2023-04-07T07:05:09.602Z,24.00
2023-04-07T07:06:09.630Z,24.00
2023-04-07T07:07:09.686Z,24.02
2023-04-07T07:08:09.646Z,24.02
2023-04-07T07:09:09.745Z,24.03
2023-04-07T07:10:09.692Z,24.04
2023-04-07T07:11:09.759Z,24.06
2023-04-07T07:12:09.763Z,24.06
2023-04-07T07:13:09.770Z,24.07
2023-04-07T07:14:09.833Z,24.08
2023-04-07T07:15:09.842Z,24.09
2023-04-07T07:16:09.846Z,24.10
2023-04-07T07:17:09.890Z,24.11
2023-04-07T07:18:09.855Z,24.11
2023-04-07T07:19:09.820Z,24.12
2023-04-07T07:20:09.874Z,24.12
2023-04-07T07:21:09.904Z,24.12
2023-04-07T07:22:09.900Z,24.13
2023-04-07T07:23:09.937Z,24.14
2023-04-07T07:24:09.939Z,24.15
2023-04-07T07:25:09.970Z,24.16
2023-04-07T07:26:09.957Z,24.16
2023-04-07T07:27:09.959Z,24.17
2023-04-07T07:28:11.058Z,24.18
2023-04-07T07:29:10.038Z,24.18
2023-04-07T07:30:10.149Z,24.18
2023-04-07T07:31:10.029Z,24.19
2023-04-07T07:32:10.048Z,24.20
2023-04-07T07:33:10.102Z,24.20
2023-04-07T07:34:10.056Z,24.22
2023-04-07T07:35:10.032Z,24.23
2023-04-07T07:36:10.114Z,24.24
2023-04-07T07:37:10.062Z,24.25
2023-04-07T07:38:10.094Z,24.27
2023-04-07T07:39:10.033Z,24.29
2023-04-07T07:40:10.037Z,24.31
2023-04-07T07:41:10.061Z,24.32
2023-04-07T07:42:10.052Z,24.34
2023-04-07T07:43:10.076Z,24.36
2023-04-07T07:44:10.087Z,24.40
2023-04-07T07:45:10.193Z,24.41
2023-04-07T07:46:10.164Z,24.42
2023-04-07T07:47:10.107Z,24.44
2023-04-07T07:48:10.305Z,24.48
2023-04-07T07:49:10.165Z,24.50
2023-04-07T07:50:10.175Z,24.51
2023-04-07T07:51:10.218Z,24.54
2023-04-07T07:52:10.465Z,24.57
2023-04-07T07:53:10.348Z,24.58
2023-04-07T07:54:10.447Z,24.60
2023-04-07T07:55:10.466Z,24.61
2023-04-07T07:56:10.484Z,24.63
2023-04-07T07:57:10.567Z,24.64
2023-04-07T07:58:10.634Z,24.66
2023-04-07T07:59:10.688Z,24.69
2023-04-07T08:00:10.754Z,24.70
2023-04-07T08:01:10.800Z,24.71
2023-04-07T08:02:11.043Z,24.71
2023-04-07T08:03:11.029Z,24.73
2023-04-07T08:04:11.167Z,24.84
2023-04-07T08:05:11.023Z,24.93
2023-04-07T08:06:11.079Z,24.95
2023-04-07T08:07:11.107Z,24.98
2023-04-07T08:08:11.226Z,24.98
2023-04-07T08:09:11.210Z,24.96
2023-04-07T08:10:11.193Z,24.95
2023-04-07T08:11:11.272Z,24.93
2023-04-07T08:12:11.278Z,24.91
2023-04-07T08:13:11.284Z,24.89
2023-04-07T08:14:11.375Z,24.88
2023-04-07T08:15:11.402Z,24.86
2023-04-07T08:16:11.503Z,24.85
2023-04-07T08:17:11.484Z,24.84
2023-04-07T08:18:11.529Z,24.85
2023-04-07T08:19:11.546Z,24.84
2023-04-07T08:20:11.537Z,24.86
2023-04-07T08:21:11.608Z,24.86
2023-04-07T08:22:11.628Z,24.87
2023-04-07T08:23:11.667Z,24.89
2023-04-07T08:24:11.663Z,24.90
2023-04-07T08:25:11.748Z,24.91
2023-04-07T08:26:11.751Z,24.92
2023-04-07T08:27:11.787Z,24.93
2023-04-07T08:28:11.813Z,24.92
2023-04-07T08:29:11.881Z,24.91
2023-04-07T08:30:11.902Z,24.94
2023-04-07T08:31:11.952Z,24.99
2023-04-07T08:32:11.929Z,25.03
2023-04-07T08:33:11.933Z,25.03
2023-04-07T08:34:11.942Z,25.03
2023-04-07T08:35:12.025Z,25.07
2023-04-07T08:36:12.050Z,25.07
2023-04-07T08:37:12.035Z,25.08
2023-04-07T08:38:12.030Z,25.13
2023-04-07T08:39:12.040Z,25.16
2023-04-07T08:40:12.049Z,25.18
2023-04-07T08:41:12.066Z,25.24
2023-04-07T08:42:12.047Z,25.31
2023-04-07T08:43:12.054Z,25.35
2023-04-07T08:44:12.121Z,25.39
2023-04-07T08:45:12.182Z,25.43
2023-04-07T08:46:12.223Z,25.46
2023-04-07T08:47:12.346Z,25.50
2023-04-07T08:48:12.358Z,25.55
2023-04-07T08:49:12.401Z,25.57
2023-04-07T08:50:12.452Z,25.60
2023-04-07T08:51:12.528Z,25.62
2023-04-07T08:52:12.643Z,25.66
2023-04-07T08:53:12.653Z,25.69
2023-04-07T08:54:12.705Z,25.71
2023-04-07T08:55:12.777Z,25.75
2023-04-07T08:56:12.812Z,25.77
2023-04-07T08:57:12.815Z,25.80
2023-04-07T08:58:12.885Z,25.82
2023-04-07T08:59:12.933Z,25.82
2023-04-07T09:00:12.942Z,25.83
2023-04-07T09:01:13.018Z,25.85
2023-04-07T09:02:13.119Z,25.87
2023-04-07T09:03:13.138Z,25.88
2023-04-07T09:04:13.237Z,25.91
2023-04-07T09:05:13.175Z,25.93
2023-04-07T09:06:13.206Z,25.96
2023-04-07T09:07:13.206Z,25.97
2023-04-07T09:08:13.262Z,26.00
2023-04-07T09:09:14.945Z,26.01
2023-04-07T09:10:13.334Z,26.03
2023-04-07T09:11:13.321Z,26.04
2023-04-07T09:12:13.347Z,26.06
2023-04-07T09:13:13.409Z,26.07
2023-04-07T09:14:13.443Z,26.10
2023-04-07T09:15:13.497Z,26.12
2023-04-07T09:16:13.465Z,26.11
2023-04-07T09:17:13.515Z,26.13
2023-04-07T09:18:13.533Z,26.14
2023-04-07T09:19:13.578Z,26.16
2023-04-07T09:20:13.592Z,26.17
2023-04-07T09:21:15.643Z,26.17
2023-04-07T09:22:13.654Z,26.17
2023-04-07T09:23:13.666Z,26.19
2023-04-07T09:24:13.722Z,26.18
2023-04-07T09:25:13.802Z,26.19
2023-04-07T09:26:13.795Z,26.19
2023-04-07T09:27:16.496Z,26.20
2023-04-07T09:28:13.817Z,26.21
2023-04-07T09:29:13.809Z,26.21
2023-04-07T09:30:13.821Z,26.21
2023-04-07T09:31:13.827Z,26.23
2023-04-07T09:32:13.863Z,26.22
2023-04-07T09:33:13.779Z,26.22
2023-04-07T09:34:13.804Z,26.22
2023-04-07T09:35:13.812Z,26.22
2023-04-07T09:36:13.842Z,26.22
2023-04-07T09:37:13.755Z,26.23
2023-04-07T09:38:13.745Z,26.23
2023-04-07T09:39:13.730Z,26.23
2023-04-07T09:40:13.785Z,26.23
2023-04-07T09:41:13.779Z,26.23
2023-04-07T09:42:13.744Z,26.23
2023-04-07T09:43:13.749Z,26.23
2023-04-07T09:44:13.716Z,26.23
2023-04-07T09:45:23.842Z,26.23
2023-04-07T09:46:14.750Z,26.23
2023-04-07T09:47:13.665Z,26.23
2023-04-07T09:48:13.682Z,26.24
2023-04-07T09:49:13.681Z,26.24
2023-04-07T09:50:13.691Z,26.23
2023-04-07T09:51:13.653Z,26.24
2023-04-07T09:52:13.667Z,26.24
2023-04-07T09:53:13.664Z,26.24
2023-04-07T09:54:13.680Z,26.25
2023-04-07T09:55:13.622Z,26.24
2023-04-07T09:56:13.639Z,26.24
2023-04-07T09:57:13.656Z,26.23
2023-04-07T09:58:13.683Z,26.23
2023-04-07T09:59:13.647Z,26.24
2023-04-07T10:00:13.610Z,26.22
2023-04-07T10:01:13.643Z,26.22
2023-04-07T10:02:13.680Z,26.22
2023-04-07T10:03:13.822Z,26.22
2023-04-07T10:04:13.723Z,26.22
2023-04-07T10:05:13.765Z,26.21
2023-04-07T10:06:13.752Z,26.20
2023-04-07T10:07:13.808Z,26.21
2023-04-07T10:08:13.816Z,26.20
2023-04-07T10:09:13.887Z,26.19
2023-04-07T10:10:13.889Z,26.19
2023-04-07T10:11:13.943Z,26.19
2023-04-07T10:12:13.953Z,26.18
2023-04-07T10:13:14.005Z,26.18
2023-04-07T10:14:14.018Z,26.17
2023-04-07T10:15:14.071Z,26.16
2023-04-07T10:16:14.074Z,26.16
2023-04-07T10:17:14.152Z,26.15
2023-04-07T10:18:14.144Z,26.15
2023-04-07T10:19:14.261Z,26.14
2023-04-07T10:20:14.196Z,26.14
2023-04-07T10:21:14.270Z,26.13
2023-04-07T10:22:14.296Z,26.13
2023-04-07T10:23:14.330Z,26.13
2023-04-07T10:24:14.406Z,26.12
2023-04-07T10:25:14.411Z,26.12
2023-04-07T10:26:14.461Z,26.12
2023-04-07T10:27:14.464Z,26.11
2023-04-07T10:28:14.517Z,26.11
2023-04-07T10:29:14.594Z,26.11
2023-04-07T10:30:14.588Z,26.11
2023-04-07T10:31:14.636Z,26.10
2023-04-07T10:32:14.654Z,26.11
2023-04-07T10:33:14.665Z,26.10
2023-04-07T10:34:14.706Z,26.09
2023-04-07T10:35:14.737Z,26.09
2023-04-07T10:36:14.780Z,26.09
2023-04-07T10:37:14.802Z,26.09
2023-04-07T10:38:14.888Z,26.09
2023-04-07T10:39:14.857Z,26.09
2023-04-07T10:40:14.914Z,26.09
2023-04-07T10:41:14.927Z,26.08
2023-04-07T10:42:14.977Z,26.09
2023-04-07T10:43:15.049Z,26.09
2023-04-07T10:44:15.040Z,26.10
2023-04-07T10:45:15.054Z,26.09
2023-04-07T10:46:15.138Z,26.08
2023-04-07T10:47:15.120Z,26.08
2023-04-07T10:48:15.181Z,26.08
2023-04-07T10:49:17.000Z,26.08
2023-04-07T10:50:15.192Z,26.09
2023-04-07T10:51:15.186Z,26.09
2023-04-07T10:52:15.190Z,26.08
2023-04-07T10:53:15.152Z,26.09
2023-04-07T10:54:15.156Z,26.09
2023-04-07T10:55:15.179Z,26.08
2023-04-07T10:56:15.183Z,26.09
2023-04-07T10:57:15.135Z,26.08
2023-04-07T10:58:15.136Z,26.08
2023-04-07T10:59:15.142Z,26.07
2023-04-07T11:00:15.105Z,26.07
2023-04-07T11:01:15.231Z,26.08
2023-04-07T11:02:15.200Z,26.08
2023-04-07T11:03:15.396Z,26.09
2023-04-07T11:04:15.148Z,26.10
2023-04-07T11:05:15.109Z,26.11
2023-04-07T11:06:15.101Z,26.12
2023-04-07T11:07:15.106Z,26.13
2023-04-07T11:08:15.105Z,26.13
2023-04-07T11:09:15.062Z,26.13
2023-04-07T11:10:15.066Z,26.13
2023-04-07T11:11:15.060Z,26.13
2023-04-07T11:12:15.027Z,26.13
2023-04-07T11:13:15.028Z,26.13
2023-04-07T11:14:15.039Z,26.13
2023-04-07T11:15:14.981Z,26.15
2023-04-07T11:16:15.107Z,26.15
2023-04-07T11:17:15.009Z,26.16
2023-04-07T11:18:15.046Z,26.15
2023-04-07T11:19:14.971Z,26.16
2023-04-07T11:20:14.969Z,26.15
2023-04-07T11:21:14.977Z,26.15
2023-04-07T11:22:26.288Z,26.16
2023-04-07T11:23:15.977Z,26.15
2023-04-07T11:24:14.955Z,26.15
2023-04-07T11:25:14.957Z,26.16
2023-04-07T11:26:14.909Z,26.16
2023-04-07T11:27:14.933Z,26.16
2023-04-07T11:28:14.952Z,26.17
2023-04-07T11:29:14.932Z,26.16
2023-04-07T11:30:15.010Z,26.18
2023-04-07T11:31:15.016Z,26.19
2023-04-07T11:32:15.065Z,26.18
2023-04-07T11:33:15.115Z,26.19
2023-04-07T11:34:15.133Z,26.19
2023-04-07T11:35:15.133Z,26.19
2023-04-07T11:36:15.229Z,26.19
2023-04-07T11:37:15.251Z,26.19
2023-04-07T11:38:15.317Z,26.19
2023-04-07T11:39:15.323Z,26.20
2023-04-07T11:40:15.375Z,26.20
2023-04-07T11:41:15.366Z,26.20
2023-04-07T11:42:15.377Z,26.20
2023-04-07T11:43:15.385Z,26.20
2023-04-07T11:44:15.852Z,26.22
2023-04-07T11:45:15.473Z,26.23
2023-04-07T11:46:15.534Z,26.24
2023-04-07T11:47:15.519Z,26.25
2023-04-07T11:48:15.529Z,26.27
2023-04-07T11:49:15.609Z,26.28
2023-04-07T11:50:15.641Z,26.28
2023-04-07T11:51:15.622Z,26.30
2023-04-07T11:52:15.657Z,26.30
2023-04-07T11:53:15.659Z,26.30
2023-04-07T11:54:15.736Z,26.31
2023-04-07T11:55:15.732Z,26.31
2023-04-07T11:56:15.743Z,26.31
2023-04-07T11:57:15.793Z,26.30
2023-04-07T11:58:15.807Z,26.30
2023-04-07T11:59:15.818Z,26.30
2023-04-07T12:00:15.916Z,26.30
2023-04-07T12:01:15.885Z,26.29
2023-04-07T12:02:16.005Z,26.29
2023-04-07T12:03:16.212Z,26.29
2023-04-07T12:04:16.057Z,26.29
2023-04-07T12:05:16.119Z,26.29
2023-04-07T12:06:16.015Z,26.29
2023-04-07T12:07:16.063Z,26.31
2023-04-07T12:08:16.070Z,26.32
2023-04-07T12:09:16.075Z,26.34
2023-04-07T12:10:16.146Z,26.35
2023-04-07T12:11:16.147Z,26.36
2023-04-07T12:12:16.209Z,26.37
2023-04-07T12:13:16.227Z,26.39
2023-04-07T12:14:16.222Z,26.37
2023-04-07T12:15:16.229Z,26.38
2023-04-07T12:16:16.308Z,26.38
2023-04-07T12:17:16.297Z,26.37
2023-04-07T12:18:16.299Z,26.36
2023-04-07T12:19:16.355Z,26.37
2023-04-07T12:20:16.381Z,26.36
2023-04-07T12:21:16.357Z,26.37
2023-04-07T12:22:16.444Z,26.38
2023-04-07T12:23:16.435Z,26.38
2023-04-07T12:24:16.444Z,26.40
2023-04-07T12:25:16.503Z,26.41
2023-04-07T12:26:16.529Z,26.41
2023-04-07T12:27:16.511Z,26.40
2023-04-07T12:28:16.574Z,26.40
2023-04-07T12:29:16.571Z,26.39
2023-04-07T12:30:16.577Z,26.38
2023-04-07T12:31:16.636Z,26.37
2023-04-07T12:32:16.687Z,26.37
2023-04-07T12:33:16.655Z,26.36
2023-04-07T12:34:16.889Z,26.36
2023-04-07T12:35:16.730Z,26.35
2023-04-07T12:36:16.723Z,26.35
2023-04-07T12:37:16.784Z,26.36
2023-04-07T12:38:16.821Z,26.36
2023-04-07T12:39:16.804Z,26.35
2023-04-07T12:40:16.803Z,26.35
2023-04-07T12:41:16.873Z,26.35
2023-04-07T12:42:16.933Z,26.35
2023-04-07T12:43:16.924Z,26.34
2023-04-07T12:44:16.940Z,26.34
2023-04-07T12:45:16.949Z,26.34
2023-04-07T12:46:17.048Z,26.34
2023-04-07T12:47:17.013Z,26.34
2023-04-07T12:48:17.021Z,26.33
2023-04-07T12:49:17.097Z,26.33
2023-04-07T12:50:17.086Z,26.32
2023-04-07T12:51:17.145Z,26.32
2023-04-07T12:52:17.142Z,26.31
2023-04-07T12:53:17.203Z,26.31